Time;durP1;ratioP1;P1;durP2;ratioP2;P2;SDS_P1;SDS_P2;PMS_P1;PMS_P2;Temp;Humidity;BMP_temperature;BMP_pressure;BME280_temperature;BME280_humidity;BME280_pressure;Samples;Min_cycle;Max_cycle;Signal;HPM_P1;HPM_P2
2022/09/14 00:00:11;;;;;;;;;;;;;;;;;;1896205;28;7117;-70
2022/09/14 00:01:14;;;;;;;;;;;;;;;;;;1894701;28;7030;-70
2022/09/14 00:02:22;;;;;;;;;;;;;;;;;;1895905;28;7092;-70
2022/09/14 00:03:20;;;;;;;;;;;;;;;;;;1895725;28;7006;-70
2022/09/14 00:04:18;;;;;;;;;;;;;;;;;;1892745;28;7013;-70
2022/09/14 00:05:16;;;;;;;;;;;;;;;;;;1890279;28;7017;-68
2022/09/14 00:06:14;;;;;;;;;;;;;;;;;;1890507;28;7093;-69
2022/09/14 00:07:11;;;;;;;;;;;;;;;;;;1894793;28;7089;-69
2022/09/14 00:08:09;;;;;;;;;;;;;;;;;;1897624;28;7046;-69
2022/09/14 00:09:09;;;;;;;;;;;;;;;;;;1890389;28;7174;-68
2022/09/14 00:10:07;;;;;;;;;;;;;;;;;;1889723;28;7304;-70
2022/09/14 00:11:06;;;;;;;;;;;;;;;;;;1894895;28;7002;-70
2022/09/14 00:12:03;;;;;;;;;;;;;;;;;;1897411;28;7002;-71
2022/09/14 00:13:00;;;;;;;;;;;;;;;;;;1897588;28;7042;-71
2022/09/14 00:13:59;;;;;;;;;;;;;;;;;;1891997;28;7006;-70
2022/09/14 00:14:58;;;;;;;;;;;;;;;;;;1890483;28;7423;-69
2022/09/14 00:15:56;;;;;;;;;;;;;;;;;;1893269;28;7013;-70
2022/09/14 00:16:53;;;;;;;;;;;;;;;;;;1894115;28;7009;-69
2022/09/14 00:17:51;;;;;;;;;;;;;;;;;;1891688;28;7005;-69
2022/09/14 00:19:11;;;;;;;;;;;;;;;;;;1890075;28;7105;-69
2022/09/14 00:20:08;;;;;;;;;;;;;;;;;;1897417;28;7005;-70
2022/09/14 00:21:07;;;;;;;;;;;;;;;;;;1892345;28;7089;-69
2022/09/14 00:22:05;;;;;;;;;;;;;;;;;;1897662;28;7116;-70
2022/09/14 00:23:03;;;;;;;;;;;;;;;;;;1896479;28;7499;-68
2022/09/14 00:24:00;;;;;;;;;;;;;;;;;;1890597;28;7034;-70
2022/09/14 00:24:57;;;;;;;;;;;;;;;;;;1888364;28;7097;-71
2022/09/14 00:26:00;;;;;;;;;;;;;;;;;;1893645;28;8494;-67
2022/09/14 00:26:58;;;;;;;;;;;;;;;;;;1896274;28;7371;-71
2022/09/14 00:27:56;;;;;;;;;;;;;;;;;;1897527;28;7025;-70
2022/09/14 00:28:55;;;;;;;;;;;;;;;;;;1898095;28;7005;-68
2022/09/14 00:29:53;;;;;;;;;;;;;;;;;;1897001;28;7096;-69
2022/09/14 00:30:50;;;;;;;;;;;;;;;;;;1897628;28;7089;-69
2022/09/14 00:31:47;;;;;;;;;;;;;;;;;;1896729;28;7093;-70
2022/09/14 00:32:45;;;;;;;;;;;;;;;;;;1894309;28;7088;-69
2022/09/14 00:33:44;;;;;;;;;;;;;;;;;;1897135;28;7093;-69
2022/09/14 00:34:41;;;;;;;;;;;;;;;;;;1890510;28;7006;-69
2022/09/14 00:35:39;;;;;;;;;;;;;;;;;;1889870;28;7017;-69
2022/09/14 00:36:39;;;;;;;;;;;;;;;;;;1894414;28;7046;-69
2022/09/14 00:37:38;;;;;;;;;;;;;;;;;;1891220;28;7117;-69
2022/09/14 00:38:36;;;;;;;;;;;;;;;;;;1890574;28;7046;-70
2022/09/14 00:39:33;;;;;;;;;;;;;;;;;;1892722;28;7005;-70
2022/09/14 00:40:31;;;;;;;;;;;;;;;;;;1895439;28;7005;-71
2022/09/14 00:41:31;;;;;;;;;;;;;;;;;;1891142;28;7037;-70
2022/09/14 00:42:28;;;;;;;;;;;;;;;;;;1890858;28;7038;-68
2022/09/14 00:43:26;;;;;;;;;;;;;;;;;;1890030;28;7054;-68
2022/09/14 00:44:23;;;;;;;;;;;;;;;;;;1890335;28;8094;-70
2022/09/14 00:45:21;;;;;;;;;;;;;;;;;;1890348;28;7010;-69
2022/09/14 00:46:18;;;;;;;;;;;;;;;;;;1890462;28;7093;-70
2022/09/14 00:47:16;;;;;;;;;;;;;;;;;;1890033;28;7101;-70
2022/09/14 00:48:14;;;;;;;;;;;;;;;;;;1889706;28;7006;-68
2022/09/14 00:49:14;;;;;;;;;;;;;;;;;;1890004;28;7121;-70
2022/09/14 00:50:13;;;;;;;;;;;;;;;;;;1893444;28;7040;-68
2022/09/14 00:51:10;;;;;;;;;;;;;;;;;;1893969;28;7042;-68
2022/09/14 00:52:08;;;;;;;;;;;;;;;;;;1889911;28;7316;-69
2022/09/14 00:53:05;;;;;;;;;;;;;;;;;;1890413;28;7013;-68
2022/09/14 00:54:03;;;;;;;;;;;;;;;;;;1889151;28;7030;-69
2022/09/14 00:55:04;;;;;;;;;;;;;;;;;;1896663;28;7030;-70
2022/09/14 00:56:02;;;;;;;;;;;;;;;;;;1892764;28;7046;-68
2022/09/14 00:57:01;;;;;;;;;;;;;;;;;;1893502;28;8107;-70
2022/09/14 00:57:59;;;;;;;;;;;;;;;;;;1897500;28;7005;-69
2022/09/14 00:59:01;;;;;;;;;;;;;;;;;;1888839;28;7092;-69
2022/09/14 00:59:58;;;;;;;;;;;;;;;;;;1882089;28;7092;-69
2022/09/14 01:00:57;;;;;;;;;;;;;;;;;;1885335;28;7058;-68
2022/09/14 01:01:55;;;;;;;;;;;;;;;;;;1889824;28;8115;-69
2022/09/14 01:02:52;;;;;;;;;;;;;;;;;;1897080;28;7006;-69
2022/09/14 01:03:49;;;;;;;;;;;;;;;;;;1897577;28;7013;-69
2022/09/14 01:04:50;;;;;;;;;;;;;;;;;;1897535;28;7096;-69
2022/09/14 01:05:57;;;;;;;;;;;;;;;;;;1889174;28;7145;-70
2022/09/14 01:07:00;;;;;;;;;;;;;;;;;;1891976;28;7042;-69
2022/09/14 01:08:17;;;;;;;;;;;;;;;;;;1897500;28;7005;-70
2022/09/14 01:09:27;;;;;;;;;;;;;;;;;;1897442;28;7088;-70
2022/09/14 01:10:39;;;;;;;;;;;;;;;;;;1897541;28;7021;-68
2022/09/14 01:11:57;;;;;;;;;;;;;;;;;;1888737;28;7165;-70
2022/09/14 01:13:10;;;;;;;;;;;;;;;;;;1892966;28;7002;-68
2022/09/14 01:14:10;;;;;;;;;;;;;;;;;;1897438;28;7056;-68
2022/09/14 01:15:08;;;;;;;;;;;;;;;;;;1888790;28;7026;-69
2022/09/14 01:16:06;;;;;;;;;;;;;;;;;;1887795;28;7009;-69
2022/09/14 01:17:12;;;;;;;;;;;;;;;;;;1897141;28;7046;-71
2022/09/14 01:18:13;;;;;;;;;;;;;;;;;;1896909;28;7014;-69
2022/09/14 01:19:29;;;;;;;;;;;;;;;;;;1889974;28;7025;-70
2022/09/14 01:20:27;;;;;;;;;;;;;;;;;;1890512;28;7014;-68
2022/09/14 01:21:25;;;;;;;;;;;;;;;;;;1889936;28;7010;-71
2022/09/14 01:22:26;;;;;;;;;;;;;;;;;;1889995;28;7014;-69
2022/09/14 01:23:29;;;;;;;;;;;;;;;;;;1889909;28;8019;-70
2022/09/14 01:24:29;;;;;;;;;;;;;;;;;;1895060;28;8035;-70
2022/09/14 01:25:26;;;;;;;;;;;;;;;;;;1893688;28;7153;-69
2022/09/14 01:26:42;;;;;;;;;;;;;;;;;;1891384;28;7022;-70
2022/09/14 01:27:42;;;;;;;;;;;;;;;;;;1891359;28;7025;-68
2022/09/14 01:28:48;;;;;;;;;;;;;;;;;;1894083;28;7010;-70
2022/09/14 01:30:03;;;;;;;;;;;;;;;;;;1889305;28;7845;-69
2022/09/14 01:31:08;;;;;;;;;;;;;;;;;;1887164;28;6998;-68
2022/09/14 01:32:05;;;;;;;;;;;;;;;;;;1889647;28;7042;-69
2022/09/14 01:33:15;;;;;;;;;;;;;;;;;;1893910;28;7033;-69
2022/09/14 01:34:15;;;;;;;;;;;;;;;;;;1892093;28;8095;-68
2022/09/14 01:35:23;;;;;;;;;;;;;;;;;;1889511;28;7038;-70
2022/09/14 01:36:22;;;;;;;;;;;;;;;;;;1890680;28;8304;-68
2022/09/14 01:37:27;;;;;;;;;;;;;;;;;;1888864;28;7006;-69
2022/09/14 01:38:33;;;;;;;;;;;;;;;;;;1889629;28;7006;-67
2022/09/14 01:39:34;;;;;;;;;;;;;;;;;;1894927;28;7005;-69
2022/09/14 01:40:38;;;;;;;;;;;;;;;;;;1888267;28;7002;-69
2022/09/14 01:41:37;;;;;;;;;;;;;;;;;;1889679;28;7014;-69
2022/09/14 01:42:37;;;;;;;;;;;;;;;;;;1889780;28;7010;-70
2022/09/14 01:43:45;;;;;;;;;;;;;;;;;;1883319;28;7010;-68
2022/09/14 01:44:47;;;;;;;;;;;;;;;;;;1883224;28;7010;-68
2022/09/14 01:45:48;;;;;;;;;;;;;;;;;;1896478;28;7097;-70
2022/09/14 01:46:50;;;;;;;;;;;;;;;;;;1896708;28;7006;-67
2022/09/14 01:47:52;;;;;;;;;;;;;;;;;;1892908;28;7108;-69
2022/09/14 01:49:01;;;;;;;;;;;;;;;;;;1889919;28;7109;-68
2022/09/14 01:50:06;;;;;;;;;;;;;;;;;;1893756;28;7006;-69
2022/09/14 01:51:08;;;;;;;;;;;;;;;;;;1890031;28;7100;-69
2022/09/14 01:52:12;;;;;;;;;;;;;;;;;;1889494;28;7001;-68
2022/09/14 01:53:33;;;;;;;;;;;;;;;;;;1889637;28;7022;-70
2022/09/14 01:54:39;;;;;;;;;;;;;;;;;;1894132;28;7009;-70
2022/09/14 01:55:44;;;;;;;;;;;;;;;;;;1889783;28;7022;-70
2022/09/14 01:56:48;;;;;;;;;;;;;;;;;;1894086;28;7088;-69
2022/09/14 01:57:53;;;;;;;;;;;;;;;;;;1897478;28;7009;-69
2022/09/14 01:59:02;;;;;;;;;;;;;;;;;;1893006;28;7272;-69
2022/09/14 02:00:27;;;;;;;;;;;;;;;;;;1889924;28;7009;-68
2022/09/14 02:01:30;;;;;;;;;;;;;;;;;;1888081;28;7110;-67
2022/09/14 02:02:33;;;;;;;;;;;;;;;;;;1891228;28;7369;-70
2022/09/14 02:03:38;;;;;;;;;;;;;;;;;;1890961;28;7106;-70
2022/09/14 02:04:58;;;;;;;;;;;;;;;;;;1897317;28;7092;-68
2022/09/14 02:06:06;;;;;;;;;;;;;;;;;;1886180;28;7010;-68
2022/09/14 02:07:03;;;;;;;;;;;;;;;;;;1896762;28;7026;-71
2022/09/14 02:08:01;;;;;;;;;;;;;;;;;;1896950;28;7117;-68
2022/09/14 02:08:59;;;;;;;;;;;;;;;;;;1897572;28;7005;-68
2022/09/14 02:09:56;;;;;;;;;;;;;;;;;;1896796;28;7387;-68
2022/09/14 02:10:56;;;;;;;;;;;;;;;;;;1893990;28;7006;-69
2022/09/14 02:11:54;;;;;;;;;;;;;;;;;;1896431;28;7006;-69
2022/09/14 02:12:53;;;;;;;;;;;;;;;;;;1896615;28;7010;-69
2022/09/14 02:13:51;;;;;;;;;;;;;;;;;;1896581;28;7005;-69
2022/09/14 02:14:51;;;;;;;;;;;;;;;;;;1886518;28;7026;-70
2022/09/14 02:15:48;;;;;;;;;;;;;;;;;;1887405;28;7038;-71
2022/09/14 02:16:46;;;;;;;;;;;;;;;;;;1896660;28;8088;-69
2022/09/14 02:17:44;;;;;;;;;;;;;;;;;;1896811;28;7301;-69
2022/09/14 02:18:42;;;;;;;;;;;;;;;;;;1890179;28;7042;-69
2022/09/14 02:19:43;;;;;;;;;;;;;;;;;;1890026;28;7089;-69
2022/09/14 02:20:48;;;;;;;;;;;;;;;;;;1882356;28;7479;-70
2022/09/14 02:21:45;;;;;;;;;;;;;;;;;;1882492;28;8108;-70
2022/09/14 02:22:43;;;;;;;;;;;;;;;;;;1893632;28;7097;-71
2022/09/14 02:23:41;;;;;;;;;;;;;;;;;;1891653;28;7006;-67
2022/09/14 02:24:38;;;;;;;;;;;;;;;;;;1895654;28;7014;-70
2022/09/14 02:25:36;;;;;;;;;;;;;;;;;;1889753;28;7028;-69
2022/09/14 02:26:34;;;;;;;;;;;;;;;;;;1889557;28;7631;-68
2022/09/14 02:27:31;;;;;;;;;;;;;;;;;;1889444;28;7092;-69
2022/09/14 02:28:29;;;;;;;;;;;;;;;;;;1892164;28;7109;-67
2022/09/14 02:29:26;;;;;;;;;;;;;;;;;;1888585;28;8032;-69
2022/09/14 02:30:26;;;;;;;;;;;;;;;;;;1889274;28;7039;-70
2022/09/14 02:31:33;;;;;;;;;;;;;;;;;;1896510;28;7089;-70
2022/09/14 02:32:54;;;;;;;;;;;;;;;;;;1896649;28;7026;-70
2022/09/14 02:34:03;;;;;;;;;;;;;;;;;;1888419;28;7120;-71
2022/09/14 02:35:13;;;;;;;;;;;;;;;;;;1889024;28;7726;-69
2022/09/14 02:36:20;;;;;;;;;;;;;;;;;;1887654;28;7010;-69
2022/09/14 02:37:31;;;;;;;;;;;;;;;;;;1892615;28;7943;-70
2022/09/14 02:38:40;;;;;;;;;;;;;;;;;;1896519;28;7006;-69
2022/09/14 02:39:55;;;;;;;;;;;;;;;;;;1890817;28;10213;-67
2022/09/14 02:40:57;;;;;;;;;;;;;;;;;;1891496;28;7009;-70
2022/09/14 02:41:54;;;;;;;;;;;;;;;;;;1890433;28;7042;-69
2022/09/14 02:43:09;;;;;;;;;;;;;;;;;;1889471;28;7022;-70
2022/09/14 02:44:27;;;;;;;;;;;;;;;;;;1889255;28;7034;-68
2022/09/14 02:45:43;;;;;;;;;;;;;;;;;;1889863;28;8050;-69
2022/09/14 02:46:41;;;;;;;;;;;;;;;;;;1896493;28;7031;-68
2022/09/14 02:47:38;;;;;;;;;;;;;;;;;;1896485;28;7038;-69
2022/09/14 02:48:38;;;;;;;;;;;;;;;;;;1896799;28;7009;-69
2022/09/14 02:49:38;;;;;;;;;;;;;;;;;;1891554;28;7364;-71
2022/09/14 02:50:56;;;;;;;;;;;;;;;;;;1892312;28;7025;-68
2022/09/14 02:51:53;;;;;;;;;;;;;;;;;;1896120;28;8095;-70
2022/09/14 02:53:05;;;;;;;;;;;;;;;;;;1889440;28;7380;-69
2022/09/14 02:54:10;;;;;;;;;;;;;;;;;;1889331;28;7010;-69
2022/09/14 02:55:11;;;;;;;;;;;;;;;;;;1881138;28;7074;-66
2022/09/14 02:56:10;;;;;;;;;;;;;;;;;;1885971;28;8036;-69
2022/09/14 02:57:07;;;;;;;;;;;;;;;;;;1889284;28;7046;-70
2022/09/14 02:58:07;;;;;;;;;;;;;;;;;;1896920;28;7128;-70
2022/09/14 02:59:07;;;;;;;;;;;;;;;;;;1882511;28;7014;-68
2022/09/14 03:00:04;;;;;;;;;;;;;;;;;;1881704;28;7215;-68
2022/09/14 03:01:02;;;;;;;;;;;;;;;;;;1889876;28;8029;-68
2022/09/14 03:02:00;;;;;;;;;;;;;;;;;;1888932;28;8012;-70
2022/09/14 03:02:58;;;;;;;;;;;;;;;;;;1889371;28;8047;-69
2022/09/14 03:03:55;;;;;;;;;;;;;;;;;;1888665;28;7093;-68
2022/09/14 03:04:52;;;;;;;;;;;;;;;;;;1892740;28;7125;-69
2022/09/14 03:05:50;;;;;;;;;;;;;;;;;;1892402;28;7092;-69
2022/09/14 03:06:47;;;;;;;;;;;;;;;;;;1890960;28;7120;-69
2022/09/14 03:07:44;;;;;;;;;;;;;;;;;;1891782;28;7010;-69
2022/09/14 03:08:42;;;;;;;;;;;;;;;;;;1889868;28;7006;-70
2022/09/14 03:09:40;;;;;;;;;;;;;;;;;;1889121;28;7010;-70
2022/09/14 03:10:40;;;;;;;;;;;;;;;;;;1891863;28;7038;-68
2022/09/14 03:11:37;;;;;;;;;;;;;;;;;;1894416;28;7149;-70
2022/09/14 03:12:36;;;;;;;;;;;;;;;;;;1889320;28;7037;-70
2022/09/14 03:13:34;;;;;;;;;;;;;;;;;;1892005;28;7010;-69
2022/09/14 03:14:32;;;;;;;;;;;;;;;;;;1896587;28;7014;-69
2022/09/14 03:15:29;;;;;;;;;;;;;;;;;;1903478;28;7093;-68
2022/09/14 03:16:27;;;;;;;;;;;;;;;;;;1903281;28;7033;-68
2022/09/14 03:17:24;;;;;;;;;;;;;;;;;;1897440;28;7009;-68
2022/09/14 03:18:22;;;;;;;;;;;;;;;;;;1896083;28;7010;-68
2022/09/14 03:19:19;;;;;;;;;;;;;;;;;;1897205;28;7096;-69
2022/09/14 03:20:18;;;;;;;;;;;;;;;;;;1896748;28;7021;-69
2022/09/14 03:21:16;;;;;;;;;;;;;;;;;;1895986;28;7136;-69
2022/09/14 03:22:14;;;;;;;;;;;;;;;;;;1895644;28;7010;-69
2022/09/14 03:23:12;;;;;;;;;;;;;;;;;;1895522;28;7305;-70
2022/09/14 03:24:09;;;;;;;;;;;;;;;;;;1895951;28;7017;-68
2022/09/14 03:25:07;;;;;;;;;;;;;;;;;;1895341;28;7183;-68
2022/09/14 03:26:06;;;;;;;;;;;;;;;;;;1896503;28;7092;-67
2022/09/14 03:27:04;;;;;;;;;;;;;;;;;;1896934;28;7365;-70
2022/09/14 03:28:01;;;;;;;;;;;;;;;;;;1896053;28;7210;-67
2022/09/14 03:28:58;;;;;;;;;;;;;;;;;;1895885;28;7213;-69
2022/09/14 03:29:56;;;;;;;;;;;;;;;;;;1896538;28;7002;-69
2022/09/14 03:30:54;;;;;;;;;;;;;;;;;;1895973;28;8171;-68
2022/09/14 03:31:51;;;;;;;;;;;;;;;;;;1896106;28;7001;-69
2022/09/14 03:32:49;;;;;;;;;;;;;;;;;;1896804;28;7046;-68
2022/09/14 03:33:46;;;;;;;;;;;;;;;;;;1896155;28;7093;-69
2022/09/14 03:34:44;;;;;;;;;;;;;;;;;;1895962;28;7006;-69
2022/09/14 03:35:41;;;;;;;;;;;;;;;;;;1896345;28;7010;-69
2022/09/14 03:36:38;;;;;;;;;;;;;;;;;;1895344;28;8027;-70
2022/09/14 03:37:37;;;;;;;;;;;;;;;;;;1896698;28;7009;-67
2022/09/14 03:38:34;;;;;;;;;;;;;;;;;;1896510;28;7628;-69
2022/09/14 03:39:32;;;;;;;;;;;;;;;;;;1898359;28;7010;-67
2022/09/14 03:40:29;;;;;;;;;;;;;;;;;;1896808;28;7097;-69
2022/09/14 03:41:27;;;;;;;;;;;;;;;;;;1897656;28;7013;-67
2022/09/14 03:42:24;;;;;;;;;;;;;;;;;;1897402;28;7096;-71
2022/09/14 03:43:22;;;;;;;;;;;;;;;;;;1898056;28;7188;-69
2022/09/14 03:44:19;;;;;;;;;;;;;;;;;;1898299;28;7105;-71
2022/09/14 03:45:18;;;;;;;;;;;;;;;;;;1898090;28;7005;-67
2022/09/14 03:46:17;;;;;;;;;;;;;;;;;;1898439;28;7108;-70
2022/09/14 03:47:14;;;;;;;;;;;;;;;;;;1898538;28;7089;-69
2022/09/14 03:48:14;;;;;;;;;;;;;;;;;;1898404;28;7005;-70
2022/09/14 03:49:11;;;;;;;;;;;;;;;;;;1897942;28;7005;-68
2022/09/14 03:50:10;;;;;;;;;;;;;;;;;;1898296;28;7084;-70
2022/09/14 03:51:09;;;;;;;;;;;;;;;;;;1898025;28;7093;-69
2022/09/14 03:52:06;;;;;;;;;;;;;;;;;;1897100;28;7050;-71
2022/09/14 03:53:04;;;;;;;;;;;;;;;;;;1897414;28;7056;-69
2022/09/14 03:54:01;;;;;;;;;;;;;;;;;;1898210;28;7038;-69
2022/09/14 03:54:58;;;;;;;;;;;;;;;;;;1898685;28;7009;-68
2022/09/14 03:55:56;;;;;;;;;;;;;;;;;;1897987;28;7042;-70
2022/09/14 03:56:53;;;;;;;;;;;;;;;;;;1898219;28;7067;-68
2022/09/14 03:57:54;;;;;;;;;;;;;;;;;;1898009;28;7038;-68
2022/09/14 03:58:51;;;;;;;;;;;;;;;;;;1898096;28;7014;-68
2022/09/14 03:59:49;;;;;;;;;;;;;;;;;;1898304;28;7029;-68
2022/09/14 04:00:46;;;;;;;;;;;;;;;;;;1898364;28;7094;-69
2022/09/14 04:01:43;;;;;;;;;;;;;;;;;;1898672;28;7013;-69
2022/09/14 04:02:41;;;;;;;;;;;;;;;;;;1898093;28;7029;-70
2022/09/14 04:03:39;;;;;;;;;;;;;;;;;;1898407;28;7097;-68
2022/09/14 04:04:36;;;;;;;;;;;;;;;;;;1897843;28;7120;-70
2022/09/14 04:05:34;;;;;;;;;;;;;;;;;;1898199;28;7042;-68
2022/09/14 04:06:31;;;;;;;;;;;;;;;;;;1897973;28;8039;-69
2022/09/14 04:07:29;;;;;;;;;;;;;;;;;;1896666;28;7017;-70
2022/09/14 04:08:26;;;;;;;;;;;;;;;;;;1898339;28;7117;-68
2022/09/14 04:09:23;;;;;;;;;;;;;;;;;;1898280;28;7128;-70
2022/09/14 04:10:21;;;;;;;;;;;;;;;;;;1898158;28;7010;-69
2022/09/14 04:11:20;;;;;;;;;;;;;;;;;;1897939;28;7124;-69
2022/09/14 04:12:18;;;;;;;;;;;;;;;;;;1897761;28;7178;-71
2022/09/14 04:13:15;;;;;;;;;;;;;;;;;;1897904;28;7096;-69
2022/09/14 04:14:13;;;;;;;;;;;;;;;;;;1897804;28;7006;-70
2022/09/14 04:15:10;;;;;;;;;;;;;;;;;;1898535;28;7013;-69
2022/09/14 04:16:08;;;;;;;;;;;;;;;;;;1898285;28;7042;-69
2022/09/14 04:17:05;;;;;;;;;;;;;;;;;;1898402;28;8083;-68
2022/09/14 04:18:03;;;;;;;;;;;;;;;;;;1897672;28;7128;-67
2022/09/14 04:19:00;;;;;;;;;;;;;;;;;;1897197;28;7025;-67
2022/09/14 04:19:57;;;;;;;;;;;;;;;;;;1896287;28;7108;-69
2022/09/14 04:20:56;;;;;;;;;;;;;;;;;;1898279;28;7010;-69
2022/09/14 04:21:53;;;;;;;;;;;;;;;;;;1898562;28;7113;-70
2022/09/14 04:22:50;;;;;;;;;;;;;;;;;;1896912;28;7151;-69
2022/09/14 04:23:51;;;;;;;;;;;;;;;;;;1897149;28;7021;-67
2022/09/14 04:25:11;;;;;;;;;;;;;;;;;;1897174;28;7017;-68
2022/09/14 04:26:13;;;;;;;;;;;;;;;;;;1897919;28;7038;-67
2022/09/14 04:27:11;;;;;;;;;;;;;;;;;;1897837;28;8094;-68
2022/09/14 04:28:08;;;;;;;;;;;;;;;;;;1898445;28;7092;-68
2022/09/14 04:29:17;;;;;;;;;;;;;;;;;;1897684;28;7005;-71
2022/09/14 04:30:14;;;;;;;;;;;;;;;;;;1897163;28;7125;-67
2022/09/14 04:31:12;;;;;;;;;;;;;;;;;;1897269;28;7005;-71
2022/09/14 04:32:09;;;;;;;;;;;;;;;;;;1897166;28;7308;-69
2022/09/14 04:33:07;;;;;;;;;;;;;;;;;;1897263;28;7316;-69
2022/09/14 04:34:04;;;;;;;;;;;;;;;;;;1890161;28;9444;-67
2022/09/14 04:35:02;;;;;;;;;;;;;;;;;;1895605;28;7009;-69
2022/09/14 04:36:00;;;;;;;;;;;;;;;;;;1897867;28;7006;-66
2022/09/14 04:36:57;;;;;;;;;;;;;;;;;;1897660;28;7010;-69
2022/09/14 04:37:55;;;;;;;;;;;;;;;;;;1896189;28;7010;-69
2022/09/14 04:38:53;;;;;;;;;;;;;;;;;;1898219;28;7042;-68
2022/09/14 04:39:51;;;;;;;;;;;;;;;;;;1897907;28;7021;-69
2022/09/14 04:40:48;;;;;;;;;;;;;;;;;;1898315;28;7009;-70
2022/09/14 04:41:46;;;;;;;;;;;;;;;;;;1897887;28;8062;-69
2022/09/14 04:42:43;;;;;;;;;;;;;;;;;;1896618;28;7153;-70
2022/09/14 04:43:42;;;;;;;;;;;;;;;;;;1898043;28;7088;-69
2022/09/14 04:44:39;;;;;;;;;;;;;;;;;;1897606;28;7033;-68
2022/09/14 04:45:37;;;;;;;;;;;;;;;;;;1897474;28;7025;-70
2022/09/14 04:46:34;;;;;;;;;;;;;;;;;;1898057;28;7009;-68
2022/09/14 04:47:32;;;;;;;;;;;;;;;;;;1898141;28;7045;-69
2022/09/14 04:48:32;;;;;;;;;;;;;;;;;;1896705;28;7101;-70
2022/09/14 04:49:30;;;;;;;;;;;;;;;;;;1897867;28;7092;-69
2022/09/14 04:50:27;;;;;;;;;;;;;;;;;;1897182;28;7009;-68
2022/09/14 04:51:26;;;;;;;;;;;;;;;;;;1896073;28;7022;-69
2022/09/14 04:52:23;;;;;;;;;;;;;;;;;;1897363;28;7038;-68
2022/09/14 04:53:21;;;;;;;;;;;;;;;;;;1897259;28;7038;-69
2022/09/14 04:54:18;;;;;;;;;;;;;;;;;;1897969;28;7093;-69
2022/09/14 04:55:15;;;;;;;;;;;;;;;;;;1897948;28;7009;-69
2022/09/14 04:56:13;;;;;;;;;;;;;;;;;;1897966;28;7026;-70
2022/09/14 04:57:11;;;;;;;;;;;;;;;;;;1896206;28;7111;-68
2022/09/14 04:58:08;;;;;;;;;;;;;;;;;;1897740;28;7038;-68
2022/09/14 04:59:06;;;;;;;;;;;;;;;;;;1898223;28;7009;-68
2022/09/14 05:00:03;;;;;;;;;;;;;;;;;;1897885;28;7013;-68
2022/09/14 05:01:02;;;;;;;;;;;;;;;;;;1897962;28;7017;-70
2022/09/14 05:01:59;;;;;;;;;;;;;;;;;;1898223;28;7010;-70
2022/09/14 05:02:57;;;;;;;;;;;;;;;;;;1898022;28;7058;-70
2022/09/14 05:03:55;;;;;;;;;;;;;;;;;;1898189;28;7100;-68
2022/09/14 05:04:52;;;;;;;;;;;;;;;;;;1897078;28;7042;-69
2022/09/14 05:05:49;;;;;;;;;;;;;;;;;;1897010;28;8019;-69
2022/09/14 05:06:48;;;;;;;;;;;;;;;;;;1897412;28;8147;-68
2022/09/14 05:07:46;;;;;;;;;;;;;;;;;;1897797;28;7332;-70
2022/09/14 05:08:46;;;;;;;;;;;;;;;;;;1898130;28;7046;-68
2022/09/14 05:09:44;;;;;;;;;;;;;;;;;;1897569;28;7021;-69
2022/09/14 05:10:41;;;;;;;;;;;;;;;;;;1897706;28;7013;-70
2022/09/14 05:11:39;;;;;;;;;;;;;;;;;;1898057;28;7038;-69
2022/09/14 05:12:36;;;;;;;;;;;;;;;;;;1897556;28;7010;-69
2022/09/14 05:13:34;;;;;;;;;;;;;;;;;;1897597;28;7010;-69
2022/09/14 05:14:32;;;;;;;;;;;;;;;;;;1897605;28;7117;-70
2022/09/14 05:15:29;;;;;;;;;;;;;;;;;;1890972;28;7101;-70
2022/09/14 05:16:28;;;;;;;;;;;;;;;;;;1893602;28;7153;-67
2022/09/14 05:17:26;;;;;;;;;;;;;;;;;;1897484;28;7088;-69
2022/09/14 05:18:23;;;;;;;;;;;;;;;;;;1891591;28;7046;-68
2022/09/14 05:19:20;;;;;;;;;;;;;;;;;;1894814;28;7041;-71
2022/09/14 05:20:18;;;;;;;;;;;;;;;;;;1894466;28;8247;-69
2022/09/14 05:21:17;;;;;;;;;;;;;;;;;;1897178;28;7010;-69
2022/09/14 05:22:15;;;;;;;;;;;;;;;;;;1897618;28;7974;-70
2022/09/14 05:23:12;;;;;;;;;;;;;;;;;;1897821;28;8055;-67
2022/09/14 05:24:13;;;;;;;;;;;;;;;;;;1896446;28;7005;-68
2022/09/14 05:25:10;;;;;;;;;;;;;;;;;;1890434;28;7001;-70
2022/09/14 05:26:12;;;;;;;;;;;;;;;;;;1891733;28;7093;-68
2022/09/14 05:27:09;;;;;;;;;;;;;;;;;;1890368;28;7311;-71
2022/09/14 05:28:07;;;;;;;;;;;;;;;;;;1894782;28;7005;-69
2022/09/14 05:29:04;;;;;;;;;;;;;;;;;;1897400;28;7233;-70
2022/09/14 05:30:02;;;;;;;;;;;;;;;;;;1898005;28;7057;-68
2022/09/14 05:31:03;;;;;;;;;;;;;;;;;;1897809;28;7006;-69
2022/09/14 05:32:01;;;;;;;;;;;;;;;;;;1891061;28;7105;-66
2022/09/14 05:32:58;;;;;;;;;;;;;;;;;;1895486;28;7014;-69
2022/09/14 05:33:56;;;;;;;;;;;;;;;;;;1897677;28;7234;-67
2022/09/14 05:34:53;;;;;;;;;;;;;;;;;;1896693;28;7018;-70
2022/09/14 05:35:51;;;;;;;;;;;;;;;;;;1895849;28;7042;-70
2022/09/14 05:36:48;;;;;;;;;;;;;;;;;;1897927;28;7013;-69
2022/09/14 05:37:45;;;;;;;;;;;;;;;;;;1898070;28;7029;-70
2022/09/14 05:38:43;;;;;;;;;;;;;;;;;;1895577;28;7120;-68
2022/09/14 05:39:40;;;;;;;;;;;;;;;;;;1882312;28;7888;-69
2022/09/14 05:40:38;;;;;;;;;;;;;;;;;;1882758;28;7824;-69
2022/09/14 05:41:36;;;;;;;;;;;;;;;;;;1888694;28;7105;-69
2022/09/14 05:42:34;;;;;;;;;;;;;;;;;;1897567;28;7303;-69
2022/09/14 05:43:31;;;;;;;;;;;;;;;;;;1889524;28;7013;-69
2022/09/14 05:44:28;;;;;;;;;;;;;;;;;;1885901;28;7006;-69
2022/09/14 05:45:26;;;;;;;;;;;;;;;;;;1888548;28;7038;-68
2022/09/14 05:46:23;;;;;;;;;;;;;;;;;;1890231;28;7046;-70
2022/09/14 05:47:20;;;;;;;;;;;;;;;;;;1890095;28;7010;-70
2022/09/14 05:48:18;;;;;;;;;;;;;;;;;;1897035;28;7092;-70
2022/09/14 05:49:15;;;;;;;;;;;;;;;;;;1889279;28;7010;-69
2022/09/14 05:50:13;;;;;;;;;;;;;;;;;;1888217;28;7046;-70
2022/09/14 05:51:15;;;;;;;;;;;;;;;;;;1893341;28;7595;-70
2022/09/14 05:52:13;;;;;;;;;;;;;;;;;;1897639;28;7085;-67
2022/09/14 05:53:10;;;;;;;;;;;;;;;;;;1890146;28;7013;-69
2022/09/14 05:54:10;;;;;;;;;;;;;;;;;;1890171;28;7112;-68
2022/09/14 05:55:07;;;;;;;;;;;;;;;;;;1892900;28;7134;-68
2022/09/14 05:56:07;;;;;;;;;;;;;;;;;;1897592;28;7022;-68
2022/09/14 05:57:04;;;;;;;;;;;;;;;;;;1897122;28;7005;-69
2022/09/14 05:58:03;;;;;;;;;;;;;;;;;;1894850;28;7122;-69
2022/09/14 05:59:00;;;;;;;;;;;;;;;;;;1893110;28;7340;-69
2022/09/14 05:59:57;;;;;;;;;;;;;;;;;;1888978;28;7005;-69
2022/09/14 06:00:55;;;;;;;;;;;;;;;;;;1884675;28;7073;-69
2022/09/14 06:01:52;;;;;;;;;;;;;;;;;;1888093;28;7120;-67
2022/09/14 06:02:51;;;;;;;;;;;;;;;;;;1890030;28;7113;-69
2022/09/14 06:03:49;;;;;;;;;;;;;;;;;;1893343;28;7427;-68
2022/09/14 06:04:46;;;;;;;;;;;;;;;;;;1888736;28;7176;-69
2022/09/14 06:05:44;;;;;;;;;;;;;;;;;;1895323;28;7092;-68
2022/09/14 06:06:41;;;;;;;;;;;;;;;;;;1890612;28;7042;-68
2022/09/14 06:07:59;;;;;;;;;;;;;;;;;;1887271;28;7092;-70
2022/09/14 06:08:56;;;;;;;;;;;;;;;;;;1886997;28;7021;-69
2022/09/14 06:09:54;;;;;;;;;;;;;;;;;;1890217;28;7041;-71
2022/09/14 06:10:51;;;;;;;;;;;;;;;;;;1891063;28;7092;-69
2022/09/14 06:11:48;;;;;;;;;;;;;;;;;;1897079;28;7117;-67
2022/09/14 06:12:46;;;;;;;;;;;;;;;;;;1891445;28;8128;-69
2022/09/14 06:13:48;;;;;;;;;;;;;;;;;;1894706;28;7010;-67
2022/09/14 06:14:46;;;;;;;;;;;;;;;;;;1897276;28;7339;-70
2022/09/14 06:15:43;;;;;;;;;;;;;;;;;;1897751;28;7006;-67
2022/09/14 06:16:41;;;;;;;;;;;;;;;;;;1897142;28;7110;-70
2022/09/14 06:17:38;;;;;;;;;;;;;;;;;;1897266;28;8095;-70
2022/09/14 06:18:37;;;;;;;;;;;;;;;;;;1897333;28;7088;-70
2022/09/14 06:19:34;;;;;;;;;;;;;;;;;;1897313;28;7006;-67
2022/09/14 06:20:31;;;;;;;;;;;;;;;;;;1897747;28;7092;-70
2022/09/14 06:21:30;;;;;;;;;;;;;;;;;;1904079;28;8111;-68
2022/09/14 06:22:27;;;;;;;;;;;;;;;;;;1896790;28;8710;-69
2022/09/14 06:23:26;;;;;;;;;;;;;;;;;;1896683;28;7132;-69
2022/09/14 06:24:24;;;;;;;;;;;;;;;;;;1897285;28;7069;-69
2022/09/14 06:25:22;;;;;;;;;;;;;;;;;;1897688;28;7156;-70
2022/09/14 06:26:20;;;;;;;;;;;;;;;;;;1897642;28;7070;-69
2022/09/14 06:27:17;;;;;;;;;;;;;;;;;;1897488;28;7955;-71
2022/09/14 06:28:14;;;;;;;;;;;;;;;;;;1897567;28;7379;-70
2022/09/14 06:29:12;;;;;;;;;;;;;;;;;;1896970;28;7002;-70
2022/09/14 06:30:09;;;;;;;;;;;;;;;;;;1896454;28;7010;-71
2022/09/14 06:31:08;;;;;;;;;;;;;;;;;;1897216;28;7053;-68
2022/09/14 06:32:06;;;;;;;;;;;;;;;;;;1896968;28;7006;-69
2022/09/14 06:33:03;;;;;;;;;;;;;;;;;;1897040;28;7013;-68
2022/09/14 06:34:02;;;;;;;;;;;;;;;;;;1896441;28;7698;-69
2022/09/14 06:35:01;;;;;;;;;;;;;;;;;;1895542;28;7041;-67
2022/09/14 06:36:06;;;;;;;;;;;;;;;;;;1897025;28;7097;-69
2022/09/14 06:37:03;;;;;;;;;;;;;;;;;;1897598;28;7034;-70
2022/09/14 06:38:00;;;;;;;;;;;;;;;;;;1897561;28;8028;-69
2022/09/14 06:38:59;;;;;;;;;;;;;;;;;;1897354;28;7021;-70
2022/09/14 06:39:56;;;;;;;;;;;;;;;;;;1897471;28;7889;-68
2022/09/14 06:40:55;;;;;;;;;;;;;;;;;;1897340;28;7018;-70
2022/09/14 06:41:53;;;;;;;;;;;;;;;;;;1897728;28;7068;-69
2022/09/14 06:42:50;;;;;;;;;;;;;;;;;;1897233;28;7010;-69
2022/09/14 06:43:48;;;;;;;;;;;;;;;;;;1897305;28;7046;-70
2022/09/14 06:44:46;;;;;;;;;;;;;;;;;;1897872;28;7005;-67
2022/09/14 06:45:53;;;;;;;;;;;;;;;;;;1896484;28;8031;-68
2022/09/14 06:46:50;;;;;;;;;;;;;;;;;;1896889;28;7026;-70
2022/09/14 06:47:48;;;;;;;;;;;;;;;;;;1897059;28;7205;-69
2022/09/14 06:48:47;;;;;;;;;;;;;;;;;;1897430;28;7205;-69
2022/09/14 06:49:44;;;;;;;;;;;;;;;;;;1897216;28;7030;-69
2022/09/14 06:50:42;;;;;;;;;;;;;;;;;;1897216;28;7315;-70
2022/09/14 06:51:41;;;;;;;;;;;;;;;;;;1897202;28;7002;-69
2022/09/14 06:52:39;;;;;;;;;;;;;;;;;;1897542;28;7009;-68
2022/09/14 06:53:36;;;;;;;;;;;;;;;;;;1897278;28;7018;-69
2022/09/14 06:54:33;;;;;;;;;;;;;;;;;;1897442;28;7017;-67